sensor_id;sensor_type;location;lat;lon;timestamp;temperature;humidity
52245;DHT22;55759;51.586;-1.758;2023-08-07T00:00:41;12.30;89.30
52245;DHT22;55759;51.586;-1.758;2023-08-07T00:03:06;12.20;89.30
52245;DHT22;55759;51.586;-1.758;2023-08-07T00:05:32;12.20;89.40
52245;DHT22;55759;51.586;-1.758;2023-08-07T00:07:58;12.20;89.50
52245;DHT22;55759;51.586;-1.758;2023-08-07T00:10:23;12.10;89.60
52245;DHT22;55759;51.586;-1.758;2023-08-07T00:12:49;12.10;89.70
52245;DHT22;55759;51.586;-1.758;2023-08-07T00:15:15;12.00;89.70
52245;DHT22;55759;51.586;-1.758;2023-08-07T00:17:41;11.90;89.80
52245;DHT22;55759;51.586;-1.758;2023-08-07T00:20:07;11.90;90.00
52245;DHT22;55759;51.586;-1.758;2023-08-07T00:22:32;11.90;90.10
52245;DHT22;55759;51.586;-1.758;2023-08-07T00:24:58;11.70;90.20
52245;DHT22;55759;51.586;-1.758;2023-08-07T00:27:24;11.70;90.20
52245;DHT22;55759;51.586;-1.758;2023-08-07T00:29:49;11.70;90.40
52245;DHT22;55759;51.586;-1.758;2023-08-07T00:32:15;11.60;90.40
52245;DHT22;55759;51.586;-1.758;2023-08-07T00:34:40;11.60;90.50
52245;DHT22;55759;51.586;-1.758;2023-08-07T00:37:06;11.50;90.50
52245;DHT22;55759;51.586;-1.758;2023-08-07T00:39:31;11.50;90.50
52245;DHT22;55759;51.586;-1.758;2023-08-07T00:41:57;11.40;90.60
52245;DHT22;55759;51.586;-1.758;2023-08-07T00:44:23;11.40;90.70
52245;DHT22;55759;51.586;-1.758;2023-08-07T00:46:48;11.30;90.70
52245;DHT22;55759;51.586;-1.758;2023-08-07T00:49:15;11.20;90.90
52245;DHT22;55759;51.586;-1.758;2023-08-07T00:51:41;11.20;91.00
52245;DHT22;55759;51.586;-1.758;2023-08-07T00:54:07;11.20;91.10
52245;DHT22;55759;51.586;-1.758;2023-08-07T00:56:34;11.20;91.20
52245;DHT22;55759;51.586;-1.758;2023-08-07T00:58:59;11.10;91.30
52245;DHT22;55759;51.586;-1.758;2023-08-07T01:01:25;11.10;91.30
52245;DHT22;55759;51.586;-1.758;2023-08-07T01:03:51;11.10;91.40
52245;DHT22;55759;51.586;-1.758;2023-08-07T01:06:17;11.10;91.40
52245;DHT22;55759;51.586;-1.758;2023-08-07T01:08:43;11.00;91.30
52245;DHT22;55759;51.586;-1.758;2023-08-07T01:13:38;11.00;91.30
52245;DHT22;55759;51.586;-1.758;2023-08-07T01:16:08;10.90;91.30
52245;DHT22;55759;51.586;-1.758;2023-08-07T01:18:36;10.90;91.40
52245;DHT22;55759;51.586;-1.758;2023-08-07T01:21:02;10.80;91.40
52245;DHT22;55759;51.586;-1.758;2023-08-07T01:23:28;10.80;91.50
52245;DHT22;55759;51.586;-1.758;2023-08-07T01:25:54;10.70;91.50
52245;DHT22;55759;51.586;-1.758;2023-08-07T01:28:27;10.70;91.60
52245;DHT22;55759;51.586;-1.758;2023-08-07T01:30:54;10.70;91.70
52245;DHT22;55759;51.586;-1.758;2023-08-07T01:35:47;10.70;91.80
52245;DHT22;55759;51.586;-1.758;2023-08-07T01:38:14;10.60;91.80
52245;DHT22;55759;51.586;-1.758;2023-08-07T01:40:40;10.60;91.70
52245;DHT22;55759;51.586;-1.758;2023-08-07T01:43:07;10.60;91.70
52245;DHT22;55759;51.586;-1.758;2023-08-07T01:45:33;10.60;91.80
52245;DHT22;55759;51.586;-1.758;2023-08-07T01:47:58;10.60;91.90
52245;DHT22;55759;51.586;-1.758;2023-08-07T01:50:24;10.60;91.90
52245;DHT22;55759;51.586;-1.758;2023-08-07T01:52:50;10.70;91.90
52245;DHT22;55759;51.586;-1.758;2023-08-07T01:55:16;10.70;91.80
52245;DHT22;55759;51.586;-1.758;2023-08-07T01:57:42;10.70;91.90
52245;DHT22;55759;51.586;-1.758;2023-08-07T02:00:08;10.60;91.80
52245;DHT22;55759;51.586;-1.758;2023-08-07T02:02:34;10.60;91.80
52245;DHT22;55759;51.586;-1.758;2023-08-07T02:05:00;10.60;91.90
52245;DHT22;55759;51.586;-1.758;2023-08-07T02:07:25;10.60;91.80
52245;DHT22;55759;51.586;-1.758;2023-08-07T02:09:51;10.60;91.90
52245;DHT22;55759;51.586;-1.758;2023-08-07T02:12:16;10.60;91.80
52245;DHT22;55759;51.586;-1.758;2023-08-07T02:14:42;10.60;91.80
52245;DHT22;55759;51.586;-1.758;2023-08-07T02:17:09;10.60;91.80
52245;DHT22;55759;51.586;-1.758;2023-08-07T02:19:34;10.60;91.80
52245;DHT22;55759;51.586;-1.758;2023-08-07T02:22:00;10.60;91.80
52245;DHT22;55759;51.586;-1.758;2023-08-07T02:24:26;10.50;91.90
52245;DHT22;55759;51.586;-1.758;2023-08-07T02:26:51;10.50;91.80
52245;DHT22;55759;51.586;-1.758;2023-08-07T02:29:17;10.50;91.80
52245;DHT22;55759;51.586;-1.758;2023-08-07T02:31:42;10.50;91.70
52245;DHT22;55759;51.586;-1.758;2023-08-07T02:34:08;10.40;91.70
52245;DHT22;55759;51.586;-1.758;2023-08-07T02:36:34;10.40;91.70
52245;DHT22;55759;51.586;-1.758;2023-08-07T02:38:59;10.30;91.70
52245;DHT22;55759;51.586;-1.758;2023-08-07T02:41:25;10.30;91.70
52245;DHT22;55759;51.586;-1.758;2023-08-07T02:43:50;10.30;91.60
52245;DHT22;55759;51.586;-1.758;2023-08-07T02:46:16;10.20;91.80
52245;DHT22;55759;51.586;-1.758;2023-08-07T02:48:43;10.20;91.70
52245;DHT22;55759;51.586;-1.758;2023-08-07T02:51:09;10.20;91.80
52245;DHT22;55759;51.586;-1.758;2023-08-07T02:53:34;10.10;91.90
52245;DHT22;55759;51.586;-1.758;2023-08-07T02:56:00;10.10;91.90
52245;DHT22;55759;51.586;-1.758;2023-08-07T02:58:25;10.10;92.00
52245;DHT22;55759;51.586;-1.758;2023-08-07T03:00:51;10.10;92.00
52245;DHT22;55759;51.586;-1.758;2023-08-07T03:03:17;10.10;92.00
52245;DHT22;55759;51.586;-1.758;2023-08-07T03:05:51;10.10;92.10
52245;DHT22;55759;51.586;-1.758;2023-08-07T03:08:17;10.00;92.00
52245;DHT22;55759;51.586;-1.758;2023-08-07T03:10:53;10.00;92.10
52245;DHT22;55759;51.586;-1.758;2023-08-07T03:13:18;10.00;92.10
52245;DHT22;55759;51.586;-1.758;2023-08-07T03:15:44;10.00;92.20
52245;DHT22;55759;51.586;-1.758;2023-08-07T03:18:10;10.00;92.20
52245;DHT22;55759;51.586;-1.758;2023-08-07T03:20:38;10.00;92.20
52245;DHT22;55759;51.586;-1.758;2023-08-07T03:23:04;9.90;92.20
52245;DHT22;55759;51.586;-1.758;2023-08-07T03:25:29;10.00;92.20
52245;DHT22;55759;51.586;-1.758;2023-08-07T03:27:55;9.90;92.20
52245;DHT22;55759;51.586;-1.758;2023-08-07T03:30:20;9.90;92.20
52245;DHT22;55759;51.586;-1.758;2023-08-07T03:32:46;9.90;92.30
52245;DHT22;55759;51.586;-1.758;2023-08-07T03:35:12;9.90;92.30
52245;DHT22;55759;51.586;-1.758;2023-08-07T03:37:37;9.90;92.30
52245;DHT22;55759;51.586;-1.758;2023-08-07T03:40:03;9.90;92.20
52245;DHT22;55759;51.586;-1.758;2023-08-07T03:42:29;9.90;92.20
52245;DHT22;55759;51.586;-1.758;2023-08-07T03:44:54;9.90;92.20
52245;DHT22;55759;51.586;-1.758;2023-08-07T03:47:20;9.90;92.30
52245;DHT22;55759;51.586;-1.758;2023-08-07T03:49:45;9.80;92.30
52245;DHT22;55759;51.586;-1.758;2023-08-07T03:52:11;9.90;92.30
52245;DHT22;55759;51.586;-1.758;2023-08-07T03:54:36;9.80;92.30
52245;DHT22;55759;51.586;-1.758;2023-08-07T03:57:02;9.80;92.30
52245;DHT22;55759;51.586;-1.758;2023-08-07T03:59:28;9.80;92.20
52245;DHT22;55759;51.586;-1.758;2023-08-07T04:01:53;9.70;92.20
52245;DHT22;55759;51.586;-1.758;2023-08-07T04:04:19;9.70;92.30
52245;DHT22;55759;51.586;-1.758;2023-08-07T04:06:44;9.70;92.20
52245;DHT22;55759;51.586;-1.758;2023-08-07T04:09:10;9.60;92.20
52245;DHT22;55759;51.586;-1.758;2023-08-07T04:11:36;9.60;92.30
52245;DHT22;55759;51.586;-1.758;2023-08-07T04:14:01;9.60;92.30
52245;DHT22;55759;51.586;-1.758;2023-08-07T04:16:27;9.60;92.30
52245;DHT22;55759;51.586;-1.758;2023-08-07T04:18:53;9.50;92.30
52245;DHT22;55759;51.586;-1.758;2023-08-07T04:21:18;9.50;92.30
52245;DHT22;55759;51.586;-1.758;2023-08-07T04:23:44;9.50;92.30
52245;DHT22;55759;51.586;-1.758;2023-08-07T04:26:09;9.40;92.20
52245;DHT22;55759;51.586;-1.758;2023-08-07T04:28:35;9.30;92.20
52245;DHT22;55759;51.586;-1.758;2023-08-07T04:31:00;9.40;92.20
52245;DHT22;55759;51.586;-1.758;2023-08-07T04:33:26;9.30;92.30
52245;DHT22;55759;51.586;-1.758;2023-08-07T04:35:52;9.30;92.40
52245;DHT22;55759;51.586;-1.758;2023-08-07T04:38:17;9.30;92.40
52245;DHT22;55759;51.586;-1.758;2023-08-07T04:40:44;9.30;92.50
52245;DHT22;55759;51.586;-1.758;2023-08-07T04:43:10;9.30;92.50
52245;DHT22;55759;51.586;-1.758;2023-08-07T04:45:35;9.40;92.70
52245;DHT22;55759;51.586;-1.758;2023-08-07T04:48:03;9.40;92.70
52245;DHT22;55759;51.586;-1.758;2023-08-07T04:50:29;9.40;92.70
52245;DHT22;55759;51.586;-1.758;2023-08-07T04:52:54;9.50;92.70
52245;DHT22;55759;51.586;-1.758;2023-08-07T04:55:20;9.40;92.70
52245;DHT22;55759;51.586;-1.758;2023-08-07T04:57:45;9.50;92.70
52245;DHT22;55759;51.586;-1.758;2023-08-07T05:00:12;9.50;92.70
52245;DHT22;55759;51.586;-1.758;2023-08-07T05:02:37;9.50;92.70
52245;DHT22;55759;51.586;-1.758;2023-08-07T05:05:03;9.60;92.80
52245;DHT22;55759;51.586;-1.758;2023-08-07T05:07:29;9.60;92.90
52245;DHT22;55759;51.586;-1.758;2023-08-07T05:09:55;9.60;92.90
52245;DHT22;55759;51.586;-1.758;2023-08-07T05:12:20;9.60;92.80
52245;DHT22;55759;51.586;-1.758;2023-08-07T05:14:49;9.60;92.80
52245;DHT22;55759;51.586;-1.758;2023-08-07T05:17:14;9.70;92.80
52245;DHT22;55759;51.586;-1.758;2023-08-07T05:19:40;9.70;92.90
52245;DHT22;55759;51.586;-1.758;2023-08-07T05:22:05;9.80;92.90
52245;DHT22;55759;51.586;-1.758;2023-08-07T05:24:31;9.90;92.90
52245;DHT22;55759;51.586;-1.758;2023-08-07T05:27:12;9.90;92.90
52245;DHT22;55759;51.586;-1.758;2023-08-07T05:29:38;10.00;92.90
52245;DHT22;55759;51.586;-1.758;2023-08-07T05:32:13;10.10;92.90
52245;DHT22;55759;51.586;-1.758;2023-08-07T05:34:39;10.10;92.90
52245;DHT22;55759;51.586;-1.758;2023-08-07T05:37:05;10.20;92.90
52245;DHT22;55759;51.586;-1.758;2023-08-07T05:39:30;10.30;92.90
52245;DHT22;55759;51.586;-1.758;2023-08-07T05:41:56;10.40;92.90
52245;DHT22;55759;51.586;-1.758;2023-08-07T05:44:23;10.50;92.80
52245;DHT22;55759;51.586;-1.758;2023-08-07T05:46:49;10.50;92.80
52245;DHT22;55759;51.586;-1.758;2023-08-07T05:49:14;10.60;92.80
52245;DHT22;55759;51.586;-1.758;2023-08-07T05:51:40;10.70;92.80
52245;DHT22;55759;51.586;-1.758;2023-08-07T05:54:05;10.80;92.70
52245;DHT22;55759;51.586;-1.758;2023-08-07T05:56:31;10.80;92.70
52245;DHT22;55759;51.586;-1.758;2023-08-07T05:58:57;10.90;92.70
52245;DHT22;55759;51.586;-1.758;2023-08-07T06:01:22;11.00;92.60
52245;DHT22;55759;51.586;-1.758;2023-08-07T06:03:50;11.10;92.60
52245;DHT22;55759;51.586;-1.758;2023-08-07T06:06:16;11.20;92.50
52245;DHT22;55759;51.586;-1.758;2023-08-07T06:08:41;11.20;92.50
52245;DHT22;55759;51.586;-1.758;2023-08-07T06:11:07;11.30;92.40
52245;DHT22;55759;51.586;-1.758;2023-08-07T06:13:33;11.40;92.40
52245;DHT22;55759;51.586;-1.758;2023-08-07T06:15:59;11.50;92.30
52245;DHT22;55759;51.586;-1.758;2023-08-07T06:18:25;11.60;92.10
52245;DHT22;55759;51.586;-1.758;2023-08-07T06:20:50;11.70;92.00
52245;DHT22;55759;51.586;-1.758;2023-08-07T06:23:16;11.80;92.00
52245;DHT22;55759;51.586;-1.758;2023-08-07T06:25:41;11.90;92.00
52245;DHT22;55759;51.586;-1.758;2023-08-07T06:28:08;12.10;91.90
52245;DHT22;55759;51.586;-1.758;2023-08-07T06:30:33;12.20;91.50
52245;DHT22;55759;51.586;-1.758;2023-08-07T06:32:59;12.40;91.60
52245;DHT22;55759;51.586;-1.758;2023-08-07T06:35:25;12.50;91.50
52245;DHT22;55759;51.586;-1.758;2023-08-07T06:37:50;12.60;91.40
52245;DHT22;55759;51.586;-1.758;2023-08-07T06:40:16;12.70;91.10
52245;DHT22;55759;51.586;-1.758;2023-08-07T06:42:41;12.80;90.60
52245;DHT22;55759;51.586;-1.758;2023-08-07T06:45:07;12.90;90.40
52245;DHT22;55759;51.586;-1.758;2023-08-07T06:47:33;13.10;90.20
52245;DHT22;55759;51.586;-1.758;2023-08-07T06:49:58;13.10;90.30
52245;DHT22;55759;51.586;-1.758;2023-08-07T06:52:24;13.20;89.80
52245;DHT22;55759;51.586;-1.758;2023-08-07T06:54:49;13.30;89.70
52245;DHT22;55759;51.586;-1.758;2023-08-07T06:57:15;13.40;89.10
52245;DHT22;55759;51.586;-1.758;2023-08-07T06:59:40;13.60;88.00
52245;DHT22;55759;51.586;-1.758;2023-08-07T07:02:06;13.80;88.30
52245;DHT22;55759;51.586;-1.758;2023-08-07T07:04:31;14.00;87.50
52245;DHT22;55759;51.586;-1.758;2023-08-07T07:06:58;14.20;87.70
52245;DHT22;55759;51.586;-1.758;2023-08-07T07:09:23;14.40;86.30
52245;DHT22;55759;51.586;-1.758;2023-08-07T07:11:49;14.50;84.80
52245;DHT22;55759;51.586;-1.758;2023-08-07T07:14:15;14.70;84.00
52245;DHT22;55759;51.586;-1.758;2023-08-07T07:16:40;14.90;82.00
52245;DHT22;55759;51.586;-1.758;2023-08-07T07:19:07;15.10;83.30
52245;DHT22;55759;51.586;-1.758;2023-08-07T07:21:34;15.30;82.30
52245;DHT22;55759;51.586;-1.758;2023-08-07T07:24:01;15.50;82.80
52245;DHT22;55759;51.586;-1.758;2023-08-07T07:26:26;15.70;81.50
52245;DHT22;55759;51.586;-1.758;2023-08-07T07:28:52;15.80;78.30
52245;DHT22;55759;51.586;-1.758;2023-08-07T07:31:17;16.00;80.30
52245;DHT22;55759;51.586;-1.758;2023-08-07T07:33:43;16.10;80.50
52245;DHT22;55759;51.586;-1.758;2023-08-07T07:36:15;16.20;79.80
52245;DHT22;55759;51.586;-1.758;2023-08-07T07:38:41;16.30;80.60
52245;DHT22;55759;51.586;-1.758;2023-08-07T07:41:06;16.40;81.30
52245;DHT22;55759;51.586;-1.758;2023-08-07T07:43:35;16.30;79.30
52245;DHT22;55759;51.586;-1.758;2023-08-07T07:46:01;16.10;79.10
52245;DHT22;55759;51.586;-1.758;2023-08-07T07:48:26;16.00;79.00
52245;DHT22;55759;51.586;-1.758;2023-08-07T07:50:57;16.00;79.20
52245;DHT22;55759;51.586;-1.758;2023-08-07T07:53:23;15.90;79.20
52245;DHT22;55759;51.586;-1.758;2023-08-07T07:55:48;15.90;80.10
52245;DHT22;55759;51.586;-1.758;2023-08-07T07:58:14;15.90;78.60
52245;DHT22;55759;51.586;-1.758;2023-08-07T08:00:40;16.00;77.20
52245;DHT22;55759;51.586;-1.758;2023-08-07T08:03:05;16.00;76.90
52245;DHT22;55759;51.586;-1.758;2023-08-07T08:05:31;15.90;77.40
52245;DHT22;55759;51.586;-1.758;2023-08-07T08:07:57;15.90;77.10
52245;DHT22;55759;51.586;-1.758;2023-08-07T08:10:22;15.80;78.00
52245;DHT22;55759;51.586;-1.758;2023-08-07T08:12:48;15.90;77.30
52245;DHT22;55759;51.586;-1.758;2023-08-07T08:15:13;16.10;76.70
52245;DHT22;55759;51.586;-1.758;2023-08-07T08:17:39;16.20;77.20
52245;DHT22;55759;51.586;-1.758;2023-08-07T08:20:05;16.30;77.20
52245;DHT22;55759;51.586;-1.758;2023-08-07T08:22:31;16.50;76.80
52245;DHT22;55759;51.586;-1.758;2023-08-07T08:24:56;16.70;74.50
52245;DHT22;55759;51.586;-1.758;2023-08-07T08:27:22;16.80;74.40
52245;DHT22;55759;51.586;-1.758;2023-08-07T08:29:48;17.00;76.20
52245;DHT22;55759;51.586;-1.758;2023-08-07T08:32:13;17.10;74.80
52245;DHT22;55759;51.586;-1.758;2023-08-07T08:34:39;17.10;73.90
52245;DHT22;55759;51.586;-1.758;2023-08-07T08:37:05;17.20;75.60
52245;DHT22;55759;51.586;-1.758;2023-08-07T08:39:31;17.10;74.00
52245;DHT22;55759;51.586;-1.758;2023-08-07T08:41:56;17.10;73.20
52245;DHT22;55759;51.586;-1.758;2023-08-07T08:44:22;17.10;74.00
52245;DHT22;55759;51.586;-1.758;2023-08-07T08:46:49;17.10;75.00
52245;DHT22;55759;51.586;-1.758;2023-08-07T08:49:20;17.10;75.10
52245;DHT22;55759;51.586;-1.758;2023-08-07T08:51:48;17.10;74.20
52245;DHT22;55759;51.586;-1.758;2023-08-07T08:54:14;17.20;75.10
52245;DHT22;55759;51.586;-1.758;2023-08-07T08:56:40;17.30;76.00
52245;DHT22;55759;51.586;-1.758;2023-08-07T08:59:05;17.50;74.50
52245;DHT22;55759;51.586;-1.758;2023-08-07T09:01:31;17.60;73.40
52245;DHT22;55759;51.586;-1.758;2023-08-07T09:03:57;17.80;72.60
52245;DHT22;55759;51.586;-1.758;2023-08-07T09:06:24;18.00;70.00
52245;DHT22;55759;51.586;-1.758;2023-08-07T09:08:51;18.10;70.40
52245;DHT22;55759;51.586;-1.758;2023-08-07T09:11:18;18.00;69.40
52245;DHT22;55759;51.586;-1.758;2023-08-07T09:13:44;18.00;68.60
52245;DHT22;55759;51.586;-1.758;2023-08-07T09:16:12;18.00;67.40
52245;DHT22;55759;51.586;-1.758;2023-08-07T09:18:38;18.10;67.20
52245;DHT22;55759;51.586;-1.758;2023-08-07T09:21:03;18.20;67.70
52245;DHT22;55759;51.586;-1.758;2023-08-07T09:23:29;18.40;68.10
52245;DHT22;55759;51.586;-1.758;2023-08-07T09:26:01;18.60;67.20
52245;DHT22;55759;51.586;-1.758;2023-08-07T09:28:28;18.80;66.70
52245;DHT22;55759;51.586;-1.758;2023-08-07T09:30:54;18.90;65.10
52245;DHT22;55759;51.586;-1.758;2023-08-07T09:33:29;19.10;65.00
52245;DHT22;55759;51.586;-1.758;2023-08-07T09:36:01;19.40;61.10
52245;DHT22;55759;51.586;-1.758;2023-08-07T09:38:28;19.60;63.10
52245;DHT22;55759;51.586;-1.758;2023-08-07T09:40:56;19.70;61.20
52245;DHT22;55759;51.586;-1.758;2023-08-07T09:43:22;19.80;60.00
52245;DHT22;55759;51.586;-1.758;2023-08-07T09:45:48;20.00;63.50
52245;DHT22;55759;51.586;-1.758;2023-08-07T09:48:22;20.10;59.80
52245;DHT22;55759;51.586;-1.758;2023-08-07T09:50:47;20.10;62.10
52245;DHT22;55759;51.586;-1.758;2023-08-07T09:53:13;20.40;62.70
52245;DHT22;55759;51.586;-1.758;2023-08-07T09:55:38;20.50;63.30
52245;DHT22;55759;51.586;-1.758;2023-08-07T09:58:05;20.60;59.40
52245;DHT22;55759;51.586;-1.758;2023-08-07T10:00:34;20.80;59.40
52245;DHT22;55759;51.586;-1.758;2023-08-07T10:03:00;20.90;57.40
52245;DHT22;55759;51.586;-1.758;2023-08-07T10:05:26;21.20;61.40
52245;DHT22;55759;51.586;-1.758;2023-08-07T10:07:52;21.50;57.00
52245;DHT22;55759;51.586;-1.758;2023-08-07T10:10:20;21.80;58.40
52245;DHT22;55759;51.586;-1.758;2023-08-07T10:12:45;22.30;52.80
52245;DHT22;55759;51.586;-1.758;2023-08-07T10:15:13;22.70;51.30
52245;DHT22;55759;51.586;-1.758;2023-08-07T10:17:39;23.00;52.30
52245;DHT22;55759;51.586;-1.758;2023-08-07T10:20:06;23.40;49.10
52245;DHT22;55759;51.586;-1.758;2023-08-07T10:22:33;23.50;48.50
52245;DHT22;55759;51.586;-1.758;2023-08-07T10:25:01;23.40;46.70
52245;DHT22;55759;51.586;-1.758;2023-08-07T10:27:29;23.00;47.70
52245;DHT22;55759;51.586;-1.758;2023-08-07T10:29:55;22.90;49.60
52245;DHT22;55759;51.586;-1.758;2023-08-07T10:32:23;23.10;50.50
52245;DHT22;55759;51.586;-1.758;2023-08-07T10:34:50;23.10;47.90
52245;DHT22;55759;51.586;-1.758;2023-08-07T10:38:05;23.10;50.70
52245;DHT22;55759;51.586;-1.758;2023-08-07T10:40:02;23.10;48.40
52245;DHT22;55759;51.586;-1.758;2023-08-07T10:42:32;23.40;48.30
52245;DHT22;55759;51.586;-1.758;2023-08-07T10:45:01;23.50;49.40
52245;DHT22;55759;51.586;-1.758;2023-08-07T10:47:32;23.80;48.20
52245;DHT22;55759;51.586;-1.758;2023-08-07T10:49:58;24.30;48.50
52245;DHT22;55759;51.586;-1.758;2023-08-07T10:52:24;24.60;48.40
52245;DHT22;55759;51.586;-1.758;2023-08-07T10:54:50;25.00;47.10
52245;DHT22;55759;51.586;-1.758;2023-08-07T10:57:16;25.20;46.80
52245;DHT22;55759;51.586;-1.758;2023-08-07T10:59:49;25.20;46.00
52245;DHT22;55759;51.586;-1.758;2023-08-07T11:02:21;25.50;45.30
52245;DHT22;55759;51.586;-1.758;2023-08-07T11:04:47;26.00;43.00
52245;DHT22;55759;51.586;-1.758;2023-08-07T11:07:21;26.30;41.10
52245;DHT22;55759;51.586;-1.758;2023-08-07T11:09:47;26.70;41.50
52245;DHT22;55759;51.586;-1.758;2023-08-07T11:12:13;27.20;40.30
52245;DHT22;55759;51.586;-1.758;2023-08-07T11:14:39;28.10;38.50
52245;DHT22;55759;51.586;-1.758;2023-08-07T11:17:06;29.10;39.60
52245;DHT22;55759;51.586;-1.758;2023-08-07T11:19:31;30.80;35.90
52245;DHT22;55759;51.586;-1.758;2023-08-07T11:21:58;31.80;34.50
52245;DHT22;55759;51.586;-1.758;2023-08-07T11:24:23;32.60;32.40
52245;DHT22;55759;51.586;-1.758;2023-08-07T11:26:52;33.20;30.90
52245;DHT22;55759;51.586;-1.758;2023-08-07T11:29:18;33.10;30.90
52245;DHT22;55759;51.586;-1.758;2023-08-07T11:31:44;31.90;32.10
52245;DHT22;55759;51.586;-1.758;2023-08-07T11:34:10;31.00;34.70
52245;DHT22;55759;51.586;-1.758;2023-08-07T11:36:45;30.00;34.00
52245;DHT22;55759;51.586;-1.758;2023-08-07T11:39:11;29.10;35.00
52245;DHT22;55759;51.586;-1.758;2023-08-07T11:41:37;30.10;35.90
52245;DHT22;55759;51.586;-1.758;2023-08-07T11:44:02;31.80;34.00
52245;DHT22;55759;51.586;-1.758;2023-08-07T11:46:28;32.70;30.80
52245;DHT22;55759;51.586;-1.758;2023-08-07T11:48:54;32.20;32.00
52245;DHT22;55759;51.586;-1.758;2023-08-07T11:51:21;32.90;29.30
52245;DHT22;55759;51.586;-1.758;2023-08-07T11:53:46;33.80;29.50
52245;DHT22;55759;51.586;-1.758;2023-08-07T11:56:13;34.80;29.10
52245;DHT22;55759;51.586;-1.758;2023-08-07T11:58:40;35.30;26.00
52245;DHT22;55759;51.586;-1.758;2023-08-07T12:01:09;35.90;25.70
52245;DHT22;55759;51.586;-1.758;2023-08-07T12:03:36;35.90;26.30
52245;DHT22;55759;51.586;-1.758;2023-08-07T12:06:05;36.30;24.20
52245;DHT22;55759;51.586;-1.758;2023-08-07T12:08:38;36.50;25.80
52245;DHT22;55759;51.586;-1.758;2023-08-07T12:11:12;36.60;24.90
52245;DHT22;55759;51.586;-1.758;2023-08-07T12:13:38;35.10;28.00
52245;DHT22;55759;51.586;-1.758;2023-08-07T12:16:04;34.80;29.60
52245;DHT22;55759;51.586;-1.758;2023-08-07T12:18:30;35.70;25.80
52245;DHT22;55759;51.586;-1.758;2023-08-07T12:20:57;36.30;24.90
52245;DHT22;55759;51.586;-1.758;2023-08-07T12:23:22;35.20;27.20
52245;DHT22;55759;51.586;-1.758;2023-08-07T12:25:48;34.60;28.50
52245;DHT22;55759;51.586;-1.758;2023-08-07T12:28:15;33.60;28.60
52245;DHT22;55759;51.586;-1.758;2023-08-07T12:30:42;33.40;28.20
52245;DHT22;55759;51.586;-1.758;2023-08-07T12:33:09;33.10;29.70
52245;DHT22;55759;51.586;-1.758;2023-08-07T12:35:34;32.30;29.50
52245;DHT22;55759;51.586;-1.758;2023-08-07T12:38:00;31.50;31.10
52245;DHT22;55759;51.586;-1.758;2023-08-07T12:40:28;32.00;31.50
52245;DHT22;55759;51.586;-1.758;2023-08-07T12:42:54;34.10;29.40
52245;DHT22;55759;51.586;-1.758;2023-08-07T12:45:19;34.40;28.10
52245;DHT22;55759;51.586;-1.758;2023-08-07T12:47:45;33.40;26.60
52245;DHT22;55759;51.586;-1.758;2023-08-07T12:50:11;31.90;30.10
52245;DHT22;55759;51.586;-1.758;2023-08-07T12:52:37;30.70;30.60
52245;DHT22;55759;51.586;-1.758;2023-08-07T12:55:02;30.20;33.80
52245;DHT22;55759;51.586;-1.758;2023-08-07T12:57:28;30.10;32.40
52245;DHT22;55759;51.586;-1.758;2023-08-07T12:59:54;29.70;32.50
52245;DHT22;55759;51.586;-1.758;2023-08-07T13:02:20;28.60;35.90
52245;DHT22;55759;51.586;-1.758;2023-08-07T13:04:45;27.90;37.10
52245;DHT22;55759;51.586;-1.758;2023-08-07T13:07:11;27.50;39.30
52245;DHT22;55759;51.586;-1.758;2023-08-07T13:09:37;27.10;40.80
52245;DHT22;55759;51.586;-1.758;2023-08-07T13:12:03;26.70;43.60
52245;DHT22;55759;51.586;-1.758;2023-08-07T13:14:29;26.10;40.20
52245;DHT22;55759;51.586;-1.758;2023-08-07T13:16:54;25.90;41.80
52245;DHT22;55759;51.586;-1.758;2023-08-07T13:19:20;26.30;40.30
52245;DHT22;55759;51.586;-1.758;2023-08-07T13:21:45;27.30;40.30
52245;DHT22;55759;51.586;-1.758;2023-08-07T13:24:11;28.00;37.20
52245;DHT22;55759;51.586;-1.758;2023-08-07T13:26:37;28.10;37.90
52245;DHT22;55759;51.586;-1.758;2023-08-07T13:29:04;28.10;36.90
52245;DHT22;55759;51.586;-1.758;2023-08-07T13:31:29;28.80;37.90
52245;DHT22;55759;51.586;-1.758;2023-08-07T13:33:55;29.80;36.20
52245;DHT22;55759;51.586;-1.758;2023-08-07T13:36:20;30.50;35.60
52245;DHT22;55759;51.586;-1.758;2023-08-07T13:38:46;30.80;34.00
52245;DHT22;55759;51.586;-1.758;2023-08-07T13:41:11;30.90;32.20
52245;DHT22;55759;51.586;-1.758;2023-08-07T13:43:37;31.10;32.60
52245;DHT22;55759;51.586;-1.758;2023-08-07T13:46:03;30.90;31.60
52245;DHT22;55759;51.586;-1.758;2023-08-07T13:48:28;31.30;36.80
52245;DHT22;55759;51.586;-1.758;2023-08-07T13:50:54;31.90;32.50
52245;DHT22;55759;51.586;-1.758;2023-08-07T13:53:19;32.00;32.60
52245;DHT22;55759;51.586;-1.758;2023-08-07T13:55:45;31.60;34.00
52245;DHT22;55759;51.586;-1.758;2023-08-07T13:58:12;31.40;32.80
52245;DHT22;55759;51.586;-1.758;2023-08-07T14:00:40;31.70;33.00
52245;DHT22;55759;51.586;-1.758;2023-08-07T14:03:06;31.90;31.50
52245;DHT22;55759;51.586;-1.758;2023-08-07T14:05:32;31.60;31.80
52245;DHT22;55759;51.586;-1.758;2023-08-07T14:07:57;30.60;31.60
52245;DHT22;55759;51.586;-1.758;2023-08-07T14:10:23;29.80;34.20
52245;DHT22;55759;51.586;-1.758;2023-08-07T14:12:48;29.40;35.30
52245;DHT22;55759;51.586;-1.758;2023-08-07T14:15:14;28.70;36.80
52245;DHT22;55759;51.586;-1.758;2023-08-07T14:20:46;27.10;38.80
52245;DHT22;55759;51.586;-1.758;2023-08-07T14:23:11;26.30;41.00
52245;DHT22;55759;51.586;-1.758;2023-08-07T14:25:37;26.30;38.90
52245;DHT22;55759;51.586;-1.758;2023-08-07T14:28:05;26.80;39.60
52245;DHT22;55759;51.586;-1.758;2023-08-07T14:30:33;27.40;38.40
52245;DHT22;55759;51.586;-1.758;2023-08-07T14:33:01;29.50;41.80
52245;DHT22;55759;51.586;-1.758;2023-08-07T14:35:27;31.50;32.00
52245;DHT22;55759;51.586;-1.758;2023-08-07T14:37:53;32.40;36.20
52245;DHT22;55759;51.586;-1.758;2023-08-07T14:40:18;32.60;34.30
52245;DHT22;55759;51.586;-1.758;2023-08-07T14:42:44;32.60;31.60
52245;DHT22;55759;51.586;-1.758;2023-08-07T14:45:10;32.50;34.90
52245;DHT22;55759;51.586;-1.758;2023-08-07T14:47:36;32.00;30.10
52245;DHT22;55759;51.586;-1.758;2023-08-07T14:50:01;31.40;30.50
52245;DHT22;55759;51.586;-1.758;2023-08-07T14:52:27;31.40;32.90
52245;DHT22;55759;51.586;-1.758;2023-08-07T14:54:53;31.70;30.20
52245;DHT22;55759;51.586;-1.758;2023-08-07T14:57:21;31.80;30.00
52245;DHT22;55759;51.586;-1.758;2023-08-07T14:59:49;31.50;32.00
52245;DHT22;55759;51.586;-1.758;2023-08-07T15:02:14;31.50;31.70
52245;DHT22;55759;51.586;-1.758;2023-08-07T15:04:40;31.20;29.80
52245;DHT22;55759;51.586;-1.758;2023-08-07T15:07:09;31.60;32.00
52245;DHT22;55759;51.586;-1.758;2023-08-07T15:09:34;32.50;33.10
52245;DHT22;55759;51.586;-1.758;2023-08-07T15:12:00;33.10;30.30
52245;DHT22;55759;51.586;-1.758;2023-08-07T15:14:26;33.70;31.40
52245;DHT22;55759;51.586;-1.758;2023-08-07T15:16:51;34.80;28.20
52245;DHT22;55759;51.586;-1.758;2023-08-07T15:19:17;35.80;27.30